Time;durP1;ratioP1;P1;durP2;ratioP2;P2;SDS_P1;SDS_P2;PMS_P1;PMS_P2;Temp;Humidity;BMP_temperature;BMP_pressure;BME280_temperature;BME280_humidity;BME280_pressure;Samples;Min_cycle;Max_cycle;Signal;HPM_P1;HPM_P2
2022/09/02 00:02:11;;;;;;;1.10;1.00;;;;;;;25.66;33.83;101351.91;5052468;28;20021;-60
2022/09/02 00:04:37;;;;;;;2.00;1.00;;;;;;;25.68;33.57;101351.72;5051989;28;20175;-61
2022/09/02 00:07:03;;;;;;;1.25;0.93;;;;;;;25.67;33.71;101348.13;5052313;28;20092;-60
2022/09/02 00:09:28;;;;;;;1.60;1.05;;;;;;;25.68;33.80;101344.34;5053505;28;20037;-61
2022/09/02 00:11:54;;;;;;;3.88;1.10;;;;;;;25.71;33.74;101334.81;5052294;28;20390;-60
2022/09/02 00:14:28;;;;;;;1.60;1.30;;;;;;;25.72;33.86;101344.72;5053315;28;20037;-61
2022/09/02 00:16:54;;;;;;;1.95;1.00;;;;;;;25.70;33.90;101336.72;5053332;28;20505;-59
2022/09/02 00:19:23;;;;;;;1.45;1.20;;;;;;;25.73;33.66;101343.69;5053474;28;20478;-60
2022/09/02 00:21:49;;;;;;;5.55;1.40;;;;;;;25.74;33.54;101337.97;5053069;28;20064;-60
2022/09/02 00:24:16;;;;;;;2.03;1.20;;;;;;;25.75;33.62;101334.16;5052152;28;20024;-60
2022/09/02 00:26:42;;;;;;;5.47;1.05;;;;;;;25.77;33.47;101336.69;5067771;28;20082;-60
2022/09/02 00:29:08;;;;;;;2.83;1.00;;;;;;;25.77;33.88;101333.94;5052341;28;20028;-60
2022/09/02 00:31:35;;;;;;;1.70;0.82;;;;;;;25.77;34.02;101331.19;5053499;28;20107;-60
2022/09/02 00:34:01;;;;;;;1.92;0.95;;;;;;;25.79;34.08;101331.84;5052046;28;20071;-60
2022/09/02 00:36:26;;;;;;;1.58;0.95;;;;;;;25.79;33.93;101332.69;5052067;28;20539;-60
2022/09/02 00:38:52;;;;;;;2.08;1.08;;;;;;;25.75;33.62;101325.94;5052978;28;20056;-60
2022/09/02 00:41:20;;;;;;;1.35;0.77;;;;;;;25.79;34.07;101329.94;5052906;28;20367;-60
2022/09/02 00:43:49;;;;;;;6.45;0.95;;;;;;;25.74;33.54;101321.50;5051587;28;20093;-61
2022/09/02 00:46:16;;;;;;;2.95;1.10;;;;;;;25.81;34.03;101332.47;5052384;28;20028;-60
2022/09/02 00:48:48;;;;;;;4.03;1.05;;;;;;;25.80;33.71;101326.13;5050153;28;20076;-60
2022/09/02 00:51:14;;;;;;;2.87;1.00;;;;;;;25.79;33.57;101329.94;5067281;28;20094;-60
2022/09/02 00:53:42;;;;;;;2.25;1.02;;;;;;;25.80;33.09;101325.28;5051666;28;20723;-60
2022/09/02 00:56:12;;;;;;;9.10;0.90;;;;;;;25.78;33.54;101317.25;5051095;28;20017;-60
2022/09/02 00:58:38;;;;;;;1.27;0.98;;;;;;;25.79;33.42;101316.22;5034387;28;20079;-60
2022/09/02 01:01:04;;;;;;;5.88;1.17;;;;;;;25.78;33.67;101311.78;5050957;28;20151;-59
2022/09/02 01:03:31;;;;;;;4.13;1.00;;;;;;;25.78;33.99;101316.41;5051159;28;20139;-61
2022/09/02 01:05:58;;;;;;;2.60;1.27;;;;;;;25.75;33.40;101312.22;5049671;28;20580;-61
2022/09/02 01:08:27;;;;;;;2.00;1.10;;;;;;;25.75;33.79;101314.09;5051329;28;20454;-61
2022/09/02 01:10:56;;;;;;;3.53;0.77;;;;;;;25.74;33.71;101305.03;5050566;28;20021;-60
2022/09/02 01:13:25;;;;;;;3.30;0.93;;;;;;;25.72;33.81;101315.38;5051855;28;20028;-60
2022/09/02 01:15:54;;;;;;;2.47;1.00;;;;;;;25.72;33.95;101311.78;5052492;28;20032;-60
2022/09/02 01:18:23;;;;;;;3.78;0.98;;;;;;;25.71;33.84;101305.44;5052435;28;20090;-60
2022/09/02 01:20:48;;;;;;;3.08;1.02;;;;;;;25.67;33.90;101306.97;5051966;28;20044;-60
2022/09/02 01:23:16;;;;;;;4.85;0.80;;;;;;;25.71;33.41;101310.13;5050754;28;20025;-61
2022/09/02 01:25:41;;;;;;;2.03;0.93;;;;;;;25.70;33.64;101312.03;5050954;28;20501;-59
2022/09/02 01:28:11;;;;;;;1.75;1.17;;;;;;;25.71;33.95;101310.13;5050136;28;20032;-60
2022/09/02 01:30:41;;;;;;;1.92;0.68;;;;;;;25.71;33.73;101310.94;5033333;28;20033;-60
2022/09/02 01:33:06;;;;;;;2.53;0.90;;;;;;;25.69;33.58;101307.56;5052280;28;20175;-60
2022/09/02 01:35:32;;;;;;;1.17;0.93;;;;;;;25.66;33.91;101302.53;5050757;28;20466;-60
2022/09/02 01:37:57;;;;;;;2.28;1.10;;;;;;;25.70;33.65;101303.78;5051785;28;20025;-60
2022/09/02 01:40:25;;;;;;;1.42;0.80;;;;;;;25.70;33.84;101303.78;5049913;28;20818;-60
2022/09/02 01:42:55;;;;;;;1.95;0.75;;;;;;;25.69;34.13;101307.56;5050459;28;20033;-61
2022/09/02 01:45:21;;;;;;;2.08;1.08;;;;;;;25.70;33.72;101301.03;5050011;28;20021;-60
2022/09/02 01:47:47;;;;;;;1.95;0.95;;;;;;;25.70;33.65;101308.44;5051461;28;20064;-60
2022/09/02 01:50:12;;;;;;;2.40;0.63;;;;;;;25.70;33.78;101309.28;5051643;28;20029;-60
2022/09/02 01:52:37;;;;;;;1.55;0.80;;;;;;;25.69;33.91;101302.09;5050126;28;20021;-60
2022/09/02 01:55:04;;;;;;;4.72;1.00;;;;;;;25.69;33.92;101309.47;5051451;28;20079;-60
2022/09/02 01:57:29;;;;;;;1.50;0.70;;;;;;;25.68;34.05;101305.06;5051458;28;20079;-60
2022/09/02 01:59:55;;;;;;;1.05;0.90;;;;;;;25.67;34.01;101303.38;5051543;28;20032;-61
2022/09/02 02:02:20;;;;;;;4.70;1.25;;;;;;;25.66;34.10;101308.00;5051287;28;20033;-60
2022/09/02 02:04:47;;;;;;;2.72;1.02;;;;;;;25.62;33.93;101292.19;5033399;28;20021;-62
2022/09/02 02:07:14;;;;;;;1.98;0.80;;;;;;;25.59;34.07;101296.22;5051306;28;20024;-60
2022/09/02 02:09:41;;;;;;;0.95;0.95;;;;;;;25.61;33.96;101299.59;5051255;28;20466;-60
2022/09/02 02:12:06;;;;;;;3.30;0.88;;;;;;;25.61;34.17;101301.47;5032865;28;20098;-60
2022/09/02 02:14:32;;;;;;;1.25;0.82;;;;;;;25.62;34.18;101309.50;5051195;28;20029;-60
2022/09/02 02:16:57;;;;;;;4.35;0.80;;;;;;;25.61;33.87;101309.72;5049027;28;20090;-60
2022/09/02 02:19:23;;;;;;;2.30;1.25;;;;;;;25.58;34.31;101307.41;5033227;28;20036;-60
2022/09/02 02:21:48;;;;;;;1.20;0.88;;;;;;;25.58;34.43;101305.50;5050873;28;20516;-60
2022/09/02 02:24:14;;;;;;;1.50;1.02;;;;;;;25.57;34.12;101303.84;5049778;28;20478;-60
2022/09/02 02:26:39;;;;;;;0.77;0.60;;;;;;;25.57;34.11;101303.84;5051073;28;20024;-60
2022/09/02 02:29:05;;;;;;;1.35;0.90;;;;;;;25.55;34.43;101303.19;5049782;28;20478;-60
2022/09/02 02:31:31;;;;;;;1.27;1.17;;;;;;;25.55;34.39;101300.44;5051085;28;20441;-60
2022/09/02 02:33:56;;;;;;;6.68;0.85;;;;;;;25.55;34.23;101302.34;5051045;28;20530;-61
2022/09/02 02:36:22;;;;;;;0.95;0.40;;;;;;;25.55;33.90;101305.94;5050720;28;20486;-60
2022/09/02 02:38:47;;;;;;;1.88;0.70;;;;;;;25.54;34.43;101312.50;5050831;28;20162;-60
2022/09/02 02:41:13;;;;;;;0.80;0.80;;;;;;;25.54;33.99;101309.75;5050164;28;20025;-60
2022/09/02 02:43:39;;;;;;;1.58;0.80;;;;;;;25.52;34.19;101306.34;5049399;28;20120;-58
2022/09/02 02:46:06;;;;;;;1.52;0.93;;;;;;;25.52;34.57;101311.84;5049732;28;20534;-58
2022/09/02 02:48:32;;;;;;;1.05;0.93;;;;;;;25.42;34.38;101295.81;5050919;28;20039;-59
2022/09/02 02:50:57;;;;;;;3.10;0.80;;;;;;;25.49;34.13;101309.53;5047377;28;20025;-58
2022/09/02 02:53:23;;;;;;;3.63;0.77;;;;;;;25.47;34.50;101306.16;5050560;28;20032;-58
2022/09/02 02:55:49;;;;;;;2.10;0.90;;;;;;;25.42;34.44;101300.44;5049389;28;20039;-59
2022/09/02 02:58:15;;;;;;;2.20;0.98;;;;;;;25.44;34.28;101309.31;5032270;28;20021;-58
2022/09/02 03:00:40;;;;;;;1.05;0.75;;;;;;;25.41;34.36;101294.13;5049355;28;20497;-58
2022/09/02 03:03:08;;;;;;;1.25;0.82;;;;;;;25.44;34.56;101299.19;5050483;28;20112;-58
2022/09/02 03:05:36;;;;;;;2.10;1.02;;;;;;;25.43;34.54;101299.41;5049272;28;20111;-58
2022/09/02 03:08:03;;;;;;;4.22;0.93;;;;;;;25.41;34.55;101296.88;5050456;28;20428;-58
2022/09/02 03:10:31;;;;;;;3.92;0.80;;;;;;;25.38;34.44;101290.94;5050740;28;20055;-58
2022/09/02 03:13:01;;;;;;;3.33;0.80;;;;;;;25.41;34.34;101298.75;5049204;28;20061;-58
2022/09/02 03:15:27;;;;;;;0.75;0.75;;;;;;;25.39;34.14;101296.25;5050486;28;20401;-59
2022/09/02 03:17:54;;;;;;;2.40;0.90;;;;;;;25.36;35.11;101296.66;5049154;28;20025;-59
2022/09/02 03:20:19;;;;;;;2.63;0.75;;;;;;;25.38;34.59;101294.53;5050274;28;20056;-58
2022/09/02 03:22:46;;;;;;;4.57;1.17;;;;;;;25.39;34.94;101300.88;5049621;28;20100;-59
2022/09/02 03:25:14;;;;;;;4.22;0.65;;;;;;;25.37;34.36;101303.00;5048049;28;20040;-60
2022/09/02 03:27:40;;;;;;;4.35;1.00;;;;;;;25.35;34.61;101294.13;5050259;28;20078;-60
2022/09/02 03:30:10;;;;;;;2.00;0.77;;;;;;;25.34;34.90;101298.78;5053154;28;20025;-58
2022/09/02 03:32:36;;;;;;;0.77;0.70;;;;;;;25.28;34.67;101293.31;5054174;28;20016;-58
2022/09/02 03:35:03;;;;;;;1.90;1.00;;;;;;;25.31;34.99;101303.84;5054014;28;20037;-58
2022/09/02 03:37:28;;;;;;;6.38;1.30;;;;;;;25.27;34.69;101291.59;5051689;28;20031;-59
2022/09/02 03:39:54;;;;;;;0.93;0.70;;;;;;;25.28;34.98;101293.31;5052900;28;20060;-58
2022/09/02 03:42:19;;;;;;;1.85;0.88;;;;;;;25.28;34.90;101296.06;5054061;28;20039;-58
2022/09/02 03:44:44;;;;;;;1.95;1.10;;;;;;;25.25;35.09;101291.00;5052772;28;20100;-59
2022/09/02 03:47:12;;;;;;;2.97;0.70;;;;;;;25.23;34.44;101296.72;5053423;28;20029;-58
2022/09/02 03:49:38;;;;;;;3.90;1.08;;;;;;;25.22;34.90;101288.69;5053606;28;20029;-58
2022/09/02 03:52:03;;;;;;;4.38;0.73;;;;;;;25.21;34.92;101287.00;5053851;28;20489;-59
2022/09/02 03:54:29;;;;;;;2.58;0.82;;;;;;;25.22;35.15;101288.69;5053911;28;20029;-59
2022/09/02 03:56:54;;;;;;;5.25;1.00;;;;;;;25.21;34.91;101278.78;5053910;28;20393;-59
2022/09/02 03:59:20;;;;;;;3.72;0.80;;;;;;;25.17;35.35;101280.25;5053761;28;20094;-60
2022/09/02 04:01:46;;;;;;;3.70;1.20;;;;;;;25.20;34.79;101277.09;5053798;28;20054;-59
2022/09/02 04:04:11;;;;;;;2.88;0.77;;;;;;;25.10;34.72;101263.78;5052419;28;20025;-59
2022/09/02 04:06:37;;;;;;;1.10;0.80;;;;;;;25.13;35.08;101270.75;5052874;28;20039;-59
2022/09/02 04:09:03;;;;;;;4.80;0.80;;;;;;;25.15;34.81;101271.41;5035727;28;20033;-60
2022/09/02 04:11:29;;;;;;;2.60;0.98;;;;;;;25.18;35.03;101276.47;5052216;28;20068;-59
2022/09/02 04:13:54;;;;;;;1.52;0.90;;;;;;;25.18;35.10;101276.47;5053520;28;20049;-59
2022/09/02 04:16:27;;;;;;;7.63;0.80;;;;;;;25.18;34.84;101276.47;5052565;28;20052;-58
2022/09/02 04:18:55;;;;;;;1.10;1.00;;;;;;;25.15;34.75;101265.91;5052482;28;20103;-59
2022/09/02 04:21:20;;;;;;;2.35;0.70;;;;;;;25.19;35.31;101268.00;5051885;28;20041;-59
2022/09/02 04:23:46;;;;;;;3.67;0.90;;;;;;;25.19;34.64;101262.53;5053217;28;20474;-59
2022/09/02 04:26:27;;;;;;;1.83;0.80;;;;;;;25.19;34.97;101272.63;5054542;28;20029;-61
2022/09/02 04:28:54;;;;;;;6.45;1.70;;;;;;;25.18;34.96;101268.22;5036432;28;20486;-60
2022/09/02 04:31:21;;;;;;;2.05;0.90;;;;;;;25.17;34.61;101269.28;5051868;28;20078;-61
2022/09/02 04:33:47;;;;;;;2.80;0.90;;;;;;;25.17;35.38;101272.88;5052086;28;20074;-60
2022/09/02 04:36:14;;;;;;;2.50;0.85;;;;;;;25.17;35.19;101263.78;5051760;28;20482;-61
2022/09/02 04:38:40;;;;;;;0.95;0.85;;;;;;;25.15;35.44;101261.28;5050573;28;20082;-60
2022/09/02 04:41:14;;;;;;;0.70;0.70;;;;;;;25.15;35.44;101263.19;5051222;28;20028;-61
2022/09/02 04:43:40;;;;;;;1.52;0.85;;;;;;;25.16;35.12;101262.09;5052449;28;20028;-60
2022/09/02 04:46:08;;;;;;;2.70;0.88;;;;;;;25.13;35.40;101257.88;5052760;28;20025;-60
2022/09/02 04:48:35;;;;;;;4.32;0.60;;;;;;;25.16;35.40;101262.94;5052648;28;20025;-60
2022/09/02 04:51:05;;;;;;;1.77;0.93;;;;;;;25.15;35.37;101266.75;5052548;28;20051;-61
2022/09/02 04:53:31;;;;;;;1.08;0.60;;;;;;;25.17;35.09;101264.66;5050553;28;20012;-60
2022/09/02 04:55:56;;;;;;;3.13;1.00;;;;;;;25.19;34.95;101267.16;5051358;28;20027;-60
2022/09/02 04:58:22;;;;;;;3.53;0.70;;;;;;;25.19;35.43;101265.25;5052405;28;20032;-61
2022/09/02 05:00:48;;;;;;;2.00;0.80;;;;;;;25.18;35.44;101257.25;5051670;28;20033;-61
2022/09/02 05:03:13;;;;;;;2.70;0.75;;;;;;;25.21;35.36;101265.06;5052677;28;20097;-60
2022/09/02 05:05:39;;;;;;;1.70;0.70;;;;;;;25.22;35.70;101264.00;5051158;28;20040;-60
2022/09/02 05:08:04;;;;;;;1.55;0.85;;;;;;;25.23;34.86;101268.44;5052644;28;20017;-60
2022/09/02 05:10:31;;;;;;;1.02;0.90;;;;;;;25.13;35.47;101252.41;5034412;28;20489;-60
2022/09/02 05:12:58;;;;;;;1.25;0.73;;;;;;;25.23;35.52;101271.16;5050358;28;20020;-60
2022/09/02 05:15:25;;;;;;;1.00;0.82;;;;;;;25.24;35.26;101275.59;5051870;28;20025;-61
2022/09/02 05:17:51;;;;;;;4.30;0.77;;;;;;;25.26;34.89;101270.75;5050373;28;20025;-60
2022/09/02 05:20:17;;;;;;;0.73;0.60;;;;;;;25.27;34.91;101266.94;5052217;28;20529;-60
2022/09/02 05:22:42;;;;;;;1.67;0.82;;;;;;;25.30;35.37;101271.97;5052025;28;20024;-61
2022/09/02 05:25:08;;;;;;;3.85;0.73;;;;;;;25.30;34.79;101269.25;5052032;28;20028;-60
2022/09/02 05:27:34;;;;;;;1.55;0.82;;;;;;;25.28;35.29;101263.13;5052009;28;20039;-61
2022/09/02 05:30:00;;;;;;;5.38;1.25;;;;;;;25.35;35.18;101266.69;5052449;28;20021;-61
2022/09/02 05:32:26;;;;;;;1.63;0.57;;;;;;;25.36;35.38;101276.63;5052060;28;20028;-61
2022/09/02 05:34:55;;;;;;;1.52;0.70;;;;;;;25.36;35.45;101265.66;5051944;28;20027;-60
2022/09/02 05:37:21;;;;;;;1.10;0.80;;;;;;;25.35;35.24;101272.19;5051766;28;20025;-61
2022/09/02 05:39:46;;;;;;;2.38;0.63;;;;;;;25.36;35.62;101268.38;5051876;28;20102;-61
2022/09/02 05:42:12;;;;;;;4.68;1.00;;;;;;;25.33;35.04;101260.59;5050491;28;20060;-60
2022/09/02 05:44:37;;;;;;;3.20;0.95;;;;;;;25.39;35.50;101265.22;5051653;28;20037;-61
2022/09/02 05:47:03;;;;;;;1.58;1.00;;;;;;;25.39;35.17;101267.97;5051264;28;20040;-61
2022/09/02 05:49:29;;;;;;;4.07;1.10;;;;;;;25.40;35.13;101265.00;5050260;28;20059;-61
2022/09/02 05:51:57;;;;;;;3.70;0.90;;;;;;;25.41;35.15;101263.09;5051779;28;20029;-61
2022/09/02 05:54:31;;;;;;;3.28;0.73;;;;;;;25.43;35.02;101269.22;5051351;28;20517;-62
2022/09/02 05:56:59;;;;;;;1.23;0.90;;;;;;;25.45;35.57;101267.09;5051366;28;20025;-62
2022/09/02 05:59:26;;;;;;;1.35;0.60;;;;;;;25.48;35.04;101266.72;5050490;28;20102;-62
2022/09/02 06:01:52;;;;;;;1.10;0.90;;;;;;;25.50;35.49;101259.09;5051155;28;20462;-62
2022/09/02 06:04:18;;;;;;;2.30;1.05;;;;;;;25.51;35.29;101263.53;5051413;28;20036;-62
2022/09/02 06:06:43;;;;;;;5.63;1.20;;;;;;;25.52;35.33;101262.47;5051181;28;20024;-63
2022/09/02 06:09:14;;;;;;;3.00;1.10;;;;;;;25.55;35.55;101267.50;5050732;28;20025;-61
2022/09/02 06:11:44;;;;;;;2.08;0.95;;;;;;;25.55;35.43;101262.03;5050710;28;20021;-62
2022/09/02 06:14:14;;;;;;;5.68;1.00;;;;;;;25.58;35.57;101261.59;5051076;28;20374;-62
2022/09/02 06:16:40;;;;;;;3.58;0.63;;;;;;;25.61;35.54;101260.31;5049358;28;20088;-61
2022/09/02 06:19:06;;;;;;;1.73;0.85;;;;;;;25.63;35.64;101270.00;5050003;28;20535;-62
2022/09/02 06:21:34;;;;;;;1.40;0.80;;;;;;;25.64;35.35;101260.72;5049546;28;20136;-62
2022/09/02 06:23:59;;;;;;;3.88;1.17;;;;;;;25.67;35.61;101265.78;5049717;28;20470;-62
2022/09/02 06:26:25;;;;;;;3.05;0.77;;;;;;;25.71;35.45;101253.28;5050826;28;20035;-62
2022/09/02 06:28:50;;;;;;;6.70;1.23;;;;;;;25.74;35.50;101249.31;5032806;28;20402;-62
2022/09/02 06:31:18;;;;;;;1.95;0.88;;;;;;;25.80;35.73;101248.41;5049883;28;20082;-62
2022/09/02 06:33:45;;;;;;;2.30;0.85;;;;;;;25.85;35.10;101256.84;5049397;28;20109;-62
2022/09/02 06:36:14;;;;;;;2.10;1.20;;;;;;;25.87;35.70;101249.22;5049567;28;20039;-62
2022/09/02 06:38:42;;;;;;;0.82;0.75;;;;;;;25.92;35.27;101252.16;5050253;28;20024;-62
2022/09/02 06:41:10;;;;;;;3.50;1.00;;;;;;;25.89;35.36;101236.13;5050934;28;20111;-62
2022/09/02 06:43:35;;;;;;;0.77;0.77;;;;;;;25.99;35.08;101248.31;5048513;28;20021;-62
2022/09/02 06:46:00;;;;;;;3.53;0.90;;;;;;;26.02;34.99;101247.03;5032785;28;20035;-62
2022/09/02 06:48:26;;;;;;;8.82;1.17;;;;;;;26.02;35.12;101234.13;5050592;28;20037;-62
2022/09/02 06:50:52;;;;;;;1.90;0.90;;;;;;;26.06;35.29;101240.03;5049313;28;20029;-62
2022/09/02 06:53:18;;;;;;;2.25;0.73;;;;;;;26.15;35.32;101247.00;5032976;28;20032;-62
2022/09/02 06:55:44;;;;;;;2.72;0.82;;;;;;;26.18;35.15;101240.22;5050610;28;20143;-62
2022/09/02 06:58:10;;;;;;;1.33;0.88;;;;;;;26.23;35.05;101234.91;5048814;28;20576;-60
2022/09/02 07:00:36;;;;;;;1.75;1.30;;;;;;;26.25;35.10;101235.50;5049200;28;20025;-60
2022/09/02 07:06:09;;;;;;;7.78;1.42;;;;;;;26.36;34.87;101238.38;5060778;28;20025;-60
2022/09/02 07:08:39;;;;;;;2.00;1.33;;;;;;;26.43;35.24;101241.09;5055390;28;20079;-60
2022/09/02 07:11:10;;;;;;;4.93;1.02;;;;;;;26.46;34.82;101229.66;5063219;28;20037;-62
2022/09/02 07:13:36;;;;;;;2.55;1.00;;;;;;;26.57;34.95;101234.44;5053160;28;20017;-63
2022/09/02 07:16:02;;;;;;;5.07;1.15;;;;;;;26.65;34.96;101234.16;5054446;28;20099;-62
2022/09/02 07:18:27;;;;;;;2.30;1.60;;;;;;;26.74;34.50;101230.06;5053137;28;20057;-62
2022/09/02 07:20:53;;;;;;;1.77;1.20;;;;;;;26.84;34.53;101235.91;5054053;28;20506;-61
2022/09/02 07:23:19;;;;;;;2.72;1.40;;;;;;;26.93;34.48;101229.06;5054122;28;20136;-62
2022/09/02 07:25:45;;;;;;;2.47;0.88;;;;;;;27.06;34.64;101226.16;5054487;28;20100;-59
2022/09/02 07:28:11;;;;;;;2.47;0.77;;;;;;;27.20;34.72;101221.34;5054260;28;20017;-62
2022/09/02 07:30:39;;;;;;;3.65;2.45;;;;;;;27.34;34.24;101231.16;5052203;28;20449;-62
2022/09/02 07:33:04;;;;;;;4.03;0.80;;;;;;;27.46;34.46;101223.00;5052955;28;20043;-62
2022/09/02 07:35:30;;;;;;;3.83;0.80;;;;;;;27.56;34.02;101228.78;5052903;28;20028;-62
2022/09/02 07:37:55;;;;;;;4.10;0.93;;;;;;;27.71;34.05;101232.00;5054041;28;20025;-62
2022/09/02 07:40:40;;;;;;;2.72;1.02;;;;;;;27.91;33.59;101229.81;5054373;28;20021;-62
2022/09/02 07:43:07;;;;;;;1.38;0.70;;;;;;;28.00;34.11;101225.66;5035991;28;20025;-62
2022/09/02 07:45:34;;;;;;;4.82;0.95;;;;;;;28.21;33.52;101222.41;5054271;28;20478;-62
2022/09/02 07:48:00;;;;;;;4.63;0.98;;;;;;;28.25;33.26;101207.06;5027427;28;20078;-62
2022/09/02 07:50:26;;;;;;;4.13;1.00;;;;;;;28.52;33.06;101229.56;5051732;28;20490;-62
2022/09/02 07:52:53;;;;;;;5.55;1.00;;;;;;;28.93;33.08;101234.16;5053692;28;20044;-60
2022/09/02 07:55:20;;;;;;;3.13;1.05;;;;;;;29.13;33.45;101226.38;5035728;28;20102;-62
2022/09/02 07:57:46;;;;;;;1.73;1.02;;;;;;;29.34;32.65;101224.94;5052740;28;20375;-60
2022/09/02 08:00:13;;;;;;;1.58;1.00;;;;;;;29.48;32.72;101225.50;5052654;28;20052;-62
2022/09/02 08:02:38;;;;;;;2.47;1.20;;;;;;;29.79;32.50;101220.34;5053436;28;20119;-60
2022/09/02 08:05:04;;;;;;;5.15;1.10;;;;;;;30.07;32.38;101210.44;5053612;28;20131;-60
2022/09/02 08:07:30;;;;;;;4.63;1.02;;;;;;;30.38;31.96;101219.03;5052275;28;20083;-60
2022/09/02 08:09:59;;;;;;;4.57;1.00;;;;;;;30.69;31.62;101216.78;5053633;28;20132;-60
2022/09/02 08:12:25;;;;;;;1.85;0.80;;;;;;;30.96;31.96;101215.03;5036128;28;20033;-60
2022/09/02 08:14:51;;;;;;;2.67;0.88;;;;;;;31.18;31.12;101213.16;5052049;28;20444;-60
2022/09/02 08:17:16;;;;;;;3.72;0.85;;;;;;;31.41;30.67;101206.53;5053311;28;20032;-60
2022/09/02 08:19:43;;;;;;;1.95;1.23;;;;;;;31.62;30.96;101205.72;5052007;28;20060;-60
2022/09/02 08:22:08;;;;;;;5.63;0.80;;;;;;;31.85;30.79;101210.13;5034549;28;20156;-62
2022/09/02 08:24:34;;;;;;;4.60;1.00;;;;;;;32.06;30.85;101198.19;5051861;28;20107;-62
2022/09/02 08:27:00;;;;;;;2.33;1.15;;;;;;;32.31;30.73;101201.19;5052161;28;20037;-63
2022/09/02 08:29:25;;;;;;;3.05;1.50;;;;;;;32.51;30.11;101190.28;5051169;28;20048;-62
2022/09/02 08:31:51;;;;;;;3.80;2.55;;;;;;;32.73;30.21;101193.81;5051825;28;20086;-62
2022/09/02 08:34:16;;;;;;;4.95;2.67;;;;;;;32.93;29.71;101197.81;5053128;28;20027;-62
2022/09/02 08:36:42;;;;;;;8.27;3.08;;;;;;;33.08;28.72;101206.28;5051691;28;20029;-60
2022/09/02 08:39:08;;;;;;;9.13;3.40;;;;;;;33.21;28.80;101200.25;5052879;28;20096;-62
2022/09/02 08:42:00;;;;;;;7.28;3.38;;;;;;;33.33;28.66;101209.22;5052812;28;20600;-60
2022/09/02 08:44:26;;;;;;;6.13;4.22;;;;;;;33.42;28.62;101198.41;5052377;28;20504;-62
2022/09/02 08:46:55;;;;;;;7.22;3.08;;;;;;;33.55;29.00;101195.97;5051478;28;20063;-60
2022/09/02 08:49:42;;;;;;;12.75;3.80;;;;;;;33.69;28.17;101191.59;5050779;28;20439;-62
2022/09/02 08:52:17;;;;;;;6.65;2.83;;;;;;;33.81;29.23;101183.81;5051380;28;20017;-60
2022/09/02 08:55:01;;;;;;;5.95;2.75;;;;;;;34.01;28.74;101187.75;5050850;28;20027;-60
2022/09/02 08:57:27;;;;;;;9.05;4.60;;;;;;;34.18;27.75;101188.38;5034377;28;20032;-60
2022/09/02 08:59:57;;;;;;;8.27;4.07;;;;;;;34.31;27.71;101185.06;5051238;28;20021;-60
2022/09/02 09:02:27;;;;;;;8.63;3.97;;;;;;;34.46;28.60;101190.59;5034716;28;20471;-61
2022/09/02 09:04:53;;;;;;;8.40;4.10;;;;;;;34.58;28.08;101176.44;5051396;28;20025;-61
2022/09/02 09:07:34;;;;;;;11.13;4.57;;;;;;;34.68;27.78;101184.78;5052671;28;20398;-60
2022/09/02 09:10:24;;;;;;;12.75;4.15;;;;;;;34.85;27.28;101171.38;5051031;28;20037;-60
2022/09/02 09:13:11;;;;;;;10.05;4.70;;;;;;;34.99;27.64;101173.31;5050206;28;20086;-61
2022/09/02 09:15:46;;;;;;;19.90;6.93;;;;;;;35.11;27.74;101170.25;5051509;28;20100;-60
2022/09/02 09:18:16;;;;;;;23.92;8.40;;;;;;;35.29;27.18;101177.16;5051753;28;20032;-60
2022/09/02 09:20:42;;;;;;;14.93;6.50;;;;;;;35.41;27.25;101167.34;5051484;28;20128;-61
2022/09/02 09:23:32;;;;;;;14.95;7.22;;;;;;;35.56;27.15;101169.25;5051924;28;20029;-61
2022/09/02 09:26:13;;;;;;;21.75;7.65;;;;;;;35.76;26.60;101166.34;5049892;28;20017;-60
2022/09/02 09:28:46;;;;;;;17.65;7.85;;;;;;;35.91;26.72;101165.41;5050707;28;20040;-61
2022/09/02 09:31:17;;;;;;;16.90;7.80;;;;;;;36.03;26.23;101166.75;5051605;28;20102;-61
2022/09/02 09:34:06;;;;;;;21.27;7.45;;;;;;;36.18;26.52;101166.63;5051683;28;20017;-61
2022/09/02 09:36:40;;;;;;;17.80;5.88;;;;;;;36.31;26.43;101161.50;5050872;28;20032;-61
2022/09/02 09:39:28;;;;;;;15.23;5.32;;;;;;;36.47;25.81;101165.81;5049648;28;20028;-60
2022/09/02 09:42:00;;;;;;;12.13;4.90;;;;;;;36.59;25.57;101169.09;5051460;28;20037;-61
2022/09/02 09:44:43;;;;;;;14.98;6.35;;;;;;;36.92;25.28;101165.41;5050866;28;20071;-60
2022/09/02 09:47:21;;;;;;;15.77;5.68;;;;;;;37.41;25.25;101158.72;5050303;28;20032;-61
2022/09/02 09:50:08;;;;;;;19.02;7.38;;;;;;;38.23;24.81;101155.28;5050335;28;20059;-61
2022/09/02 09:52:33;;;;;;;19.10;7.97;;;;;;;39.56;24.11;101158.91;5050491;28;20036;-60
2022/09/02 09:55:20;;;;;;;19.67;7.00;;;;;;;41.43;21.62;101153.28;5051414;28;20391;-61
2022/09/02 09:57:47;;;;;;;17.23;6.95;;;;;;;41.12;22.41;101142.06;5050142;28;20083;-61
2022/09/02 10:00:19;;;;;;;16.02;7.38;;;;;;;40.61;22.54;101135.03;5051349;28;20104;-61
2022/09/02 10:02:50;;;;;;;11.20;5.93;;;;;;;40.38;23.06;101139.00;5051157;28;20025;-60
2022/09/02 10:05:17;;;;;;;12.23;4.97;;;;;;;40.27;23.06;101132.00;5051419;28;20033;-61
2022/09/02 10:07:44;;;;;;;10.38;4.80;;;;;;;40.38;23.14;101132.53;5050849;28;20021;-61
2022/09/02 10:10:21;;;;;;;8.05;4.10;;;;;;;40.44;22.50;101137.72;5049740;28;20063;-62
2022/09/02 10:12:48;;;;;;;6.75;3.20;;;;;;;40.71;22.45;101138.72;5050165;28;20451;-61
2022/09/02 10:15:22;;;;;;;3.58;2.17;;;;;;;40.87;21.77;101135.19;5051074;28;20021;-61
2022/09/02 10:18:04;;;;;;;5.80;2.10;;;;;;;41.19;21.51;101131.16;5047889;28;20052;-61
2022/09/02 10:20:51;;;;;;;2.80;2.13;;;;;;;41.30;21.17;101132.50;5032893;28;20120;-61
2022/09/02 10:23:31;;;;;;;4.65;1.40;;;;;;;41.57;21.17;101126.63;5051156;28;20039;-61
2022/09/02 10:26:22;;;;;;;3.47;1.05;;;;;;;41.75;21.23;101116.25;5050518;28;20100;-61
2022/09/02 10:29:12;;;;;;;5.63;1.13;;;;;;;41.80;21.17;101125.34;5049666;28;20033;-61
2022/09/02 10:32:11;;;;;;;2.38;0.98;;;;;;;41.90;20.76;101120.56;5050348;28;20052;-61
2022/09/02 10:34:54;;;;;;;1.70;1.20;;;;;;;41.50;21.14;101120.66;5050778;28;20398;-61
2022/09/02 10:37:22;;;;;;;2.20;1.15;;;;;;;41.18;21.30;101121.09;5049287;28;20029;-61
2022/09/02 10:40:08;;;;;;;1.98;0.82;;;;;;;40.81;20.75;101110.31;5049689;28;20021;-61
2022/09/02 10:43:05;;;;;;;1.20;0.80;;;;;;;40.97;21.39;101100.31;5050001;28;20029;-60
2022/09/02 10:45:42;;;;;;;0.60;0.60;;;;;;;41.18;20.88;101112.66;5047953;28;20360;-60
2022/09/02 10:48:13;;;;;;;0.73;0.70;;;;;;;41.61;20.83;101107.09;5050171;28;20036;-61
2022/09/02 10:50:46;;;;;;;1.10;0.90;;;;;;;41.86;20.20;101099.84;5050800;28;20029;-61
2022/09/02 10:53:20;;;;;;;1.27;0.80;;;;;;;42.01;19.95;101091.72;5048666;28;20070;-61
2022/09/02 10:56:00;;;;;;;1.33;0.70;;;;;;;42.11;19.71;101085.72;5050657;28;20021;-61
2022/09/02 10:58:43;;;;;;;0.90;0.90;;;;;;;42.26;19.83;101088.06;5048103;28;21009;-61
2022/09/02 11:01:16;;;;;;;1.65;0.93;;;;;;;42.34;19.65;101080.75;5049025;28;20024;-60
2022/09/02 11:03:59;;;;;;;2.40;0.80;;;;;;;42.48;19.72;101080.53;5048629;28;20032;-61
2022/09/02 11:06:28;;;;;;;2.08;0.95;;;;;;;42.57;19.64;101079.38;5050566;28;20112;-60
2022/09/02 11:08:58;;;;;;;0.77;0.77;;;;;;;42.70;19.58;101074.66;5048634;28;20021;-61
2022/09/02 11:11:23;;;;;;;4.00;1.00;;;;;;;42.84;19.00;101069.63;5049459;28;20516;-60
2022/09/02 11:13:51;;;;;;;2.13;0.97;;;;;;;42.91;19.58;101070.72;5050516;28;20025;-61
2022/09/02 11:16:25;;;;;;;0.82;0.82;;;;;;;43.03;19.04;101057.91;5049185;28;20288;-61
2022/09/02 11:18:58;;;;;;;2.58;1.02;;;;;;;43.29;19.18;101064.22;5049672;28;20032;-61
2022/09/02 11:21:44;;;;;;;2.65;0.90;;;;;;;43.43;18.90;101064.81;5050041;28;20075;-61
2022/09/02 11:24:14;;;;;;;1.17;1.10;;;;;;;43.48;18.76;101051.31;5050194;28;20044;-61
2022/09/02 11:27:08;;;;;;;2.80;1.30;;;;;;;43.63;18.54;101058.34;5031841;28;20025;-61
2022/09/02 11:29:45;;;;;;;1.73;0.93;;;;;;;43.80;18.22;101052.56;5049487;28;20104;-61
2022/09/02 11:32:28;;;;;;;1.48;0.80;;;;;;;43.80;18.75;101041.28;5064715;28;20070;-61
2022/09/02 11:34:54;;;;;;;0.73;0.73;;;;;;;43.74;18.25;101037.00;5050338;28;20021;-61
2022/09/02 11:37:31;;;;;;;4.10;1.15;;;;;;;43.20;18.83;101033.25;5032293;28;20024;-61